createdAt,value
2022-08-23T00:02:23.716Z,18.28
2022-08-23T00:05:00.560Z,18.27
2022-08-23T00:07:38.746Z,18.29
2022-08-23T00:10:08.979Z,18.21
2022-08-23T00:12:53.648Z,18.23
2022-08-23T00:15:21.241Z,18.21
2022-08-23T00:17:48.070Z,18.06
2022-08-23T00:20:19.001Z,17.83
2022-08-23T00:22:45.964Z,17.56
2022-08-23T00:25:14.465Z,17.53
2022-08-23T00:27:41.287Z,17.53
2022-08-23T00:30:12.708Z,17.59
2022-08-23T00:32:41.449Z,17.60
2022-08-23T00:35:11.362Z,17.61
2022-08-23T00:37:38.643Z,17.64
2022-08-23T00:40:14.125Z,17.71
2022-08-23T00:43:18.963Z,17.67
2022-08-23T00:46:32.252Z,17.64
2022-08-23T00:49:04.276Z,17.60
2022-08-23T00:51:52.713Z,17.59
2022-08-23T00:54:24.480Z,17.60
2022-08-23T00:56:52.412Z,17.62
2022-08-23T00:59:19.441Z,17.57
2022-08-23T01:01:46.113Z,17.57
2022-08-23T01:04:14.132Z,17.51
2022-08-23T01:07:08.766Z,17.38
2022-08-23T01:09:39.555Z,17.28
2022-08-23T01:12:16.378Z,17.02
2022-08-23T01:15:00.102Z,16.85
2022-08-23T01:17:36.776Z,16.62
2022-08-23T01:20:11.012Z,16.54
2022-08-23T01:22:58.913Z,16.52
2022-08-23T01:25:30.842Z,16.60
2022-08-23T01:27:57.845Z,16.67
2022-08-23T01:30:31.427Z,16.82
2022-08-23T01:33:03.439Z,16.89
2022-08-23T01:35:48.019Z,16.88
2022-08-23T01:38:15.509Z,16.91
2022-08-23T01:40:43.174Z,16.94
2022-08-23T01:43:10.291Z,16.80
2022-08-23T01:45:37.492Z,16.40
2022-08-23T01:48:06.793Z,16.08
2022-08-23T01:50:34.482Z,16.02
2022-08-23T01:53:01.511Z,16.01
2022-08-23T01:55:28.464Z,16.06
2022-08-23T01:58:00.163Z,16.18
2022-08-23T02:00:35.562Z,16.31
2022-08-23T02:03:03.594Z,16.42
2022-08-23T02:05:30.696Z,16.45
2022-08-23T02:08:18.213Z,16.48
2022-08-23T02:10:44.959Z,16.47
2022-08-23T02:13:12.360Z,16.51
2022-08-23T02:15:46.942Z,16.60
2022-08-23T02:18:13.946Z,16.42
2022-08-23T02:20:49.227Z,16.24
2022-08-23T02:23:17.560Z,16.13
2022-08-23T02:25:44.349Z,16.15
2022-08-23T02:28:11.628Z,16.23
2022-08-23T02:30:39.970Z,16.21
2022-08-23T02:33:07.145Z,15.99
2022-08-23T02:35:33.917Z,15.91
2022-08-23T02:38:10.192Z,15.87
2022-08-23T02:40:37.956Z,16.03
2022-08-23T02:43:06.635Z,16.12
2022-08-23T02:45:33.799Z,16.10
2022-08-23T02:48:01.620Z,15.99
2022-08-23T02:50:28.770Z,15.99
2022-08-23T02:52:57.832Z,16.04
2022-08-23T02:55:24.626Z,15.96
2022-08-23T02:57:51.617Z,15.83
2022-08-23T03:00:19.765Z,15.67
2022-08-23T03:02:46.721Z,15.55
2022-08-23T03:05:15.736Z,15.62
2022-08-23T03:07:44.235Z,15.60
2022-08-23T03:10:12.947Z,15.36
2022-08-23T03:12:42.071Z,15.29
2022-08-23T03:15:09.382Z,15.24
2022-08-23T03:17:36.151Z,15.07
2022-08-23T03:20:04.029Z,15.00
2022-08-23T03:22:30.637Z,14.94
2022-08-23T03:24:57.502Z,14.87
2022-08-23T03:27:24.133Z,15.08
2022-08-23T03:29:50.870Z,15.25
2022-08-23T03:32:17.992Z,15.37
2022-08-23T03:34:45.551Z,15.44
2022-08-23T03:37:12.300Z,15.52
2022-08-23T03:39:38.997Z,15.60
2022-08-23T03:42:06.810Z,15.65
2022-08-23T03:44:33.717Z,15.68
2022-08-23T03:47:00.490Z,15.61
2022-08-23T03:49:27.249Z,15.67
2022-08-23T03:51:54.165Z,15.71
2022-08-23T03:54:22.763Z,15.71
2022-08-23T03:57:02.961Z,15.72
2022-08-23T03:59:32.728Z,15.75
2022-08-23T04:01:59.680Z,15.74
2022-08-23T04:04:27.812Z,15.73
2022-08-23T04:06:55.605Z,15.74
2022-08-23T04:09:22.541Z,15.72
2022-08-23T04:12:02.272Z,15.33
2022-08-23T04:14:28.874Z,15.08
2022-08-23T04:16:55.743Z,14.94
2022-08-23T04:19:23.178Z,14.72
2022-08-23T04:21:52.920Z,14.48
2022-08-23T04:24:20.355Z,14.40
2022-08-23T04:26:49.094Z,14.40
2022-08-23T04:29:33.582Z,14.48
2022-08-23T04:32:07.810Z,14.58
2022-08-23T04:34:45.661Z,14.51
2022-08-23T04:37:18.536Z,14.45
2022-08-23T04:40:04.368Z,14.44
2022-08-23T04:42:31.085Z,14.51
2022-08-23T04:44:57.672Z,14.64
2022-08-23T04:47:24.257Z,14.73
2022-08-23T04:49:50.863Z,14.92
2022-08-23T04:52:19.528Z,14.94
2022-08-23T04:54:46.817Z,15.01
2022-08-23T04:57:15.333Z,15.07
2022-08-23T04:59:42.843Z,15.05
2022-08-23T05:02:09.617Z,15.08
2022-08-23T05:04:36.442Z,15.15
2022-08-23T05:07:04.061Z,15.20
2022-08-23T05:09:30.938Z,15.25
2022-08-23T05:12:09.623Z,15.13
2022-08-23T05:14:36.569Z,14.99
2022-08-23T05:17:03.243Z,14.92
2022-08-23T05:19:30.719Z,14.97
2022-08-23T05:21:57.432Z,14.94
2022-08-23T05:24:24.189Z,14.79
2022-08-23T05:26:50.801Z,14.49
2022-08-23T05:29:17.493Z,14.50
2022-08-23T05:31:44.375Z,14.38
2022-08-23T05:34:14.189Z,14.62
2022-08-23T05:36:51.645Z,14.86
2022-08-23T05:39:32.734Z,15.02
2022-08-23T05:42:04.898Z,15.17
2022-08-23T05:44:36.094Z,15.33
2022-08-23T05:47:10.529Z,15.44
2022-08-23T05:49:39.586Z,15.50
2022-08-23T05:52:09.974Z,15.43
2022-08-23T05:54:36.591Z,15.36
2022-08-23T05:57:03.738Z,15.39
2022-08-23T05:59:30.529Z,15.47
2022-08-23T06:01:57.370Z,15.37
2022-08-23T06:04:24.093Z,15.32
2022-08-23T06:06:50.749Z,15.40
2022-08-23T06:09:19.375Z,15.59
2022-08-23T06:11:51.217Z,15.78
2022-08-23T06:14:18.169Z,15.87
2022-08-23T06:16:51.577Z,16.12
2022-08-23T06:19:20.819Z,16.19
2022-08-23T06:21:48.221Z,16.24
2022-08-23T06:24:14.954Z,16.46
2022-08-23T06:26:45.289Z,16.67
2022-08-23T06:29:19.791Z,16.84
2022-08-23T06:31:50.572Z,16.99
2022-08-23T06:34:17.580Z,17.16
2022-08-23T06:36:46.272Z,17.24
2022-08-23T06:39:15.094Z,17.35
2022-08-23T06:41:41.802Z,17.35
2022-08-23T06:44:09.109Z,17.51
2022-08-23T06:46:38.449Z,17.44
2022-08-23T06:49:07.367Z,17.43
2022-08-23T06:51:41.921Z,17.57
2022-08-23T06:54:14.199Z,17.72
2022-08-23T06:56:43.919Z,17.95
2022-08-23T06:59:12.114Z,18.11
2022-08-23T07:02:06.028Z,18.27
2022-08-23T07:04:38.130Z,18.45
2022-08-23T07:07:11.146Z,18.57
2022-08-23T07:09:40.267Z,18.69
2022-08-23T07:12:25.543Z,18.80
2022-08-23T07:14:58.120Z,18.92
2022-08-23T07:17:25.311Z,19.10
2022-08-23T07:19:52.217Z,19.23
2022-08-23T07:22:20.515Z,19.36
2022-08-23T07:24:47.114Z,19.48
2022-08-23T07:27:13.732Z,19.55
2022-08-23T07:29:41.018Z,19.58
2022-08-23T07:32:09.407Z,19.76
2022-08-23T07:34:36.163Z,19.90
2022-08-23T07:37:11.226Z,19.99
2022-08-23T07:39:42.272Z,20.01
2022-08-23T07:42:23.174Z,20.09
2022-08-23T07:44:51.780Z,20.30
2022-08-23T07:47:19.776Z,20.42
2022-08-23T07:49:46.978Z,20.48
2022-08-23T07:52:13.636Z,20.60
2022-08-23T07:54:40.345Z,20.71
2022-08-23T07:57:10.076Z,20.83
2022-08-23T07:59:37.041Z,20.98
2022-08-23T08:02:03.885Z,21.17
2022-08-23T08:04:30.709Z,21.29
2022-08-23T08:07:17.690Z,21.28
2022-08-23T08:09:45.328Z,21.36
2022-08-23T08:12:19.609Z,21.50
2022-08-23T08:14:48.265Z,21.73
2022-08-23T08:17:18.069Z,21.71
2022-08-23T08:19:45.206Z,21.94
2022-08-23T08:22:13.018Z,21.99
2022-08-23T08:24:40.363Z,22.14
2022-08-23T08:27:08.229Z,22.11
2022-08-23T08:29:35.025Z,22.04
2022-08-23T08:32:01.847Z,22.12
2022-08-23T08:34:28.607Z,22.31
2022-08-23T08:36:58.986Z,22.53
2022-08-23T08:39:32.295Z,22.59
2022-08-23T08:42:31.677Z,22.67
2022-08-23T08:45:05.808Z,22.80
2022-08-23T08:47:50.309Z,23.04
2022-08-23T08:50:41.390Z,23.18
2022-08-23T08:53:31.510Z,23.24
2022-08-23T08:56:07.860Z,23.33
2022-08-23T08:59:06.814Z,23.39
2022-08-23T09:01:37.979Z,23.48
2022-08-23T09:04:06.925Z,23.62
2022-08-23T09:07:02.894Z,23.69
2022-08-23T09:09:53.991Z,23.73
2022-08-23T09:12:49.498Z,23.74
2022-08-23T09:15:33.007Z,23.54
2022-08-23T09:18:15.848Z,23.54
2022-08-23T09:20:47.054Z,23.54
2022-08-23T09:23:34.335Z,23.76
2022-08-23T09:26:32.461Z,23.82
2022-08-23T09:29:29.263Z,23.83
2022-08-23T09:32:02.283Z,23.95
2022-08-23T09:34:37.978Z,23.90
2022-08-23T09:37:13.685Z,23.87
2022-08-23T09:39:49.633Z,23.93
2022-08-23T09:42:39.597Z,24.03
2022-08-23T09:45:35.101Z,24.17
2022-08-23T09:48:02.685Z,24.27
2022-08-23T09:50:39.857Z,24.35
2022-08-23T09:53:12.092Z,24.35
2022-08-23T09:55:45.807Z,24.43
2022-08-23T09:58:36.874Z,24.48
2022-08-23T10:01:14.109Z,24.59
2022-08-23T10:03:42.668Z,24.63
2022-08-23T10:06:15.428Z,24.69
2022-08-23T10:09:02.252Z,24.86
2022-08-23T10:11:47.981Z,24.89
2022-08-23T10:14:24.303Z,24.90
2022-08-23T10:17:14.628Z,24.94
2022-08-23T10:20:12.565Z,25.06
2022-08-23T10:22:59.080Z,24.95
2022-08-23T10:25:48.680Z,24.91
2022-08-23T10:29:13.554Z,24.96
2022-08-23T10:32:06.301Z,25.12
2022-08-23T10:34:51.710Z,25.18
2022-08-23T10:37:46.868Z,25.31
2022-08-23T10:40:25.890Z,25.40
2022-08-23T10:43:15.535Z,25.41
2022-08-23T10:45:46.814Z,25.47
2022-08-23T10:48:31.792Z,25.55
2022-08-23T10:51:09.907Z,25.48
2022-08-23T10:53:56.996Z,25.63
2022-08-23T10:56:23.975Z,25.78
2022-08-23T10:59:00.970Z,25.94
2022-08-23T11:01:47.494Z,25.98
2022-08-23T11:04:36.583Z,26.01
2022-08-23T11:07:20.246Z,25.96
2022-08-23T11:09:55.007Z,26.03
2022-08-23T11:12:34.621Z,26.04
2022-08-23T11:15:07.483Z,26.05
2022-08-23T11:17:49.074Z,26.07
2022-08-23T11:20:50.797Z,26.00
2022-08-23T11:23:36.907Z,25.99
2022-08-23T11:26:36.277Z,26.11
2022-08-23T11:29:05.831Z,26.18
2022-08-23T11:32:13.952Z,26.26
2022-08-23T11:34:51.937Z,26.40
2022-08-23T11:37:24.273Z,26.40
2022-08-23T11:40:00.330Z,26.39
2022-08-23T11:42:50.170Z,26.46
2022-08-23T11:45:27.211Z,26.55
2022-08-23T11:48:18.475Z,26.51
2022-08-23T11:50:55.686Z,26.48
2022-08-23T11:54:06.604Z,26.60
2022-08-23T11:56:58.658Z,26.62
2022-08-23T12:00:06.277Z,26.59
2022-08-23T12:02:42.320Z,26.67
2022-08-23T12:05:32.471Z,26.68
2022-08-23T12:08:02.618Z,26.69
2022-08-23T12:10:41.826Z,26.67
2022-08-23T12:13:20.630Z,26.68
2022-08-23T12:16:19.755Z,26.70
2022-08-23T12:18:49.392Z,26.77
2022-08-23T12:21:31.108Z,26.81
2022-08-23T12:24:16.916Z,26.90
2022-08-23T12:26:49.626Z,26.93
2022-08-23T12:29:34.139Z,26.89
2022-08-23T12:32:10.348Z,26.95
2022-08-23T12:35:06.496Z,26.87
2022-08-23T12:37:49.937Z,27.02
2022-08-23T12:40:32.539Z,26.93
2022-08-23T12:43:17.449Z,26.94
2022-08-23T12:45:55.802Z,27.04
2022-08-23T12:48:28.423Z,27.21
2022-08-23T12:51:07.114Z,27.38
2022-08-23T12:53:45.169Z,27.54
2022-08-23T12:56:31.862Z,27.60
2022-08-23T12:59:05.372Z,27.71
2022-08-23T13:01:37.618Z,27.59
2022-08-23T13:04:11.596Z,27.76
2022-08-23T13:06:57.647Z,27.79
2022-08-23T13:09:38.696Z,27.87
2022-08-23T13:12:10.215Z,27.99
2022-08-23T13:14:39.623Z,27.99
2022-08-23T13:17:17.419Z,28.02
2022-08-23T13:19:46.639Z,28.16
2022-08-23T13:22:24.042Z,28.66
2022-08-23T13:25:24.577Z,29.14
2022-08-23T13:27:46.057Z,29.74
2022-08-23T13:30:19.745Z,30.85
2022-08-23T13:33:08.372Z,32.62
2022-08-23T13:35:40.533Z,33.57
2022-08-23T13:38:17.015Z,33.65
2022-08-23T13:41:10.614Z,34.91
2022-08-23T13:43:48.724Z,35.90
2022-08-23T13:46:23.176Z,36.61
2022-08-23T13:49:02.295Z,36.67
2022-08-23T13:51:38.820Z,36.37
2022-08-23T13:54:15.213Z,36.84
2022-08-23T13:57:07.860Z,36.79
2022-08-23T13:59:51.969Z,36.84
2022-08-23T14:02:21.551Z,37.05
2022-08-23T14:04:48.233Z,37.50
2022-08-23T14:07:15.616Z,37.16
2022-08-23T14:09:43.418Z,37.99
2022-08-23T14:12:18.105Z,37.95
2022-08-23T14:14:46.126Z,38.13
2022-08-23T14:17:16.454Z,38.00
2022-08-23T14:22:34.701Z,35.40
2022-08-23T14:25:01.450Z,34.21
2022-08-23T14:27:28.205Z,33.70
2022-08-23T14:29:54.880Z,32.96
2022-08-23T14:32:21.869Z,31.98
2022-08-23T14:34:48.519Z,31.77
2022-08-23T14:38:18.109Z,31.47
2022-08-23T14:40:02.276Z,30.93
2022-08-23T14:42:28.974Z,30.49
2022-08-23T14:44:55.903Z,30.24
2022-08-23T14:47:22.647Z,29.92
2022-08-23T14:49:53.302Z,29.79
2022-08-23T14:52:21.638Z,29.51
2022-08-23T14:54:49.612Z,29.50
2022-08-23T14:57:16.889Z,29.21
2022-08-23T14:59:43.642Z,29.10
2022-08-23T15:02:16.196Z,28.93
2022-08-23T15:04:42.794Z,28.83
2022-08-23T15:07:18.713Z,28.64
2022-08-23T15:09:54.452Z,28.50
2022-08-23T15:15:27.852Z,28.23
2022-08-23T15:18:00.513Z,28.24
2022-08-23T15:20:34.880Z,28.08
2022-08-23T15:23:02.201Z,28.04
2022-08-23T15:25:33.296Z,27.96
2022-08-23T15:28:02.223Z,27.98
2022-08-23T15:30:30.292Z,27.93
2022-08-23T15:33:00.730Z,27.96
2022-08-23T15:35:29.526Z,27.97
2022-08-23T15:37:57.414Z,27.90
2022-08-23T15:40:26.070Z,27.89
2022-08-23T15:42:53.381Z,27.95
2022-08-23T15:45:20.142Z,28.01
2022-08-23T15:47:55.102Z,28.13
2022-08-23T15:50:27.023Z,27.92
2022-08-23T15:52:55.202Z,27.96
2022-08-23T15:55:21.964Z,28.15
2022-08-23T15:57:53.581Z,28.38
2022-08-23T16:00:27.810Z,28.27
2022-08-23T16:03:18.668Z,28.11
2022-08-23T16:05:45.965Z,28.08
2022-08-23T16:08:30.738Z,28.04
2022-08-23T16:10:58.466Z,27.91
2022-08-23T16:13:26.968Z,27.97
2022-08-23T16:15:54.480Z,28.00
2022-08-23T16:18:21.244Z,28.15
2022-08-23T16:20:48.006Z,28.45
2022-08-23T16:23:14.669Z,28.67
2022-08-23T16:25:42.561Z,28.80
2022-08-23T16:28:09.583Z,28.88
2022-08-23T16:30:36.927Z,28.87
2022-08-23T16:33:04.264Z,29.15
2022-08-23T16:35:30.979Z,29.38
2022-08-23T16:37:57.716Z,29.45
2022-08-23T16:40:24.596Z,29.69
2022-08-23T16:42:52.713Z,30.09
2022-08-23T16:45:25.822Z,30.36
2022-08-23T16:47:53.617Z,30.71
2022-08-23T16:50:20.448Z,31.33
2022-08-23T16:52:47.073Z,31.66
2022-08-23T16:55:14.494Z,31.98
2022-08-23T16:57:41.506Z,32.43
2022-08-23T17:00:13.154Z,32.88
2022-08-23T17:02:40.903Z,32.70
2022-08-23T17:05:12.558Z,32.81
2022-08-23T17:07:42.107Z,32.83
2022-08-23T17:10:11.865Z,32.99
2022-08-23T17:12:57.973Z,32.91
2022-08-23T17:15:34.343Z,32.83
2022-08-23T17:21:26.593Z,31.63
2022-08-23T17:23:53.352Z,30.96
2022-08-23T17:26:20.553Z,30.25
2022-08-23T17:28:47.246Z,29.79
2022-08-23T17:31:14.683Z,29.35
2022-08-23T17:33:41.953Z,29.02
2022-08-23T17:36:40.306Z,28.55
2022-08-23T17:39:12.976Z,28.25
2022-08-23T17:41:44.984Z,28.04
2022-08-23T17:44:12.881Z,27.90
2022-08-23T17:46:43.024Z,27.78
2022-08-23T17:49:11.713Z,27.57
2022-08-23T17:51:41.124Z,27.31
2022-08-23T17:54:11.227Z,27.08
2022-08-23T17:56:40.488Z,26.91
2022-08-23T17:59:09.083Z,26.68
2022-08-23T18:01:37.629Z,26.49
2022-08-23T18:04:07.940Z,26.34
2022-08-23T18:06:36.456Z,26.16
2022-08-23T18:09:06.587Z,26.00
2022-08-23T18:11:45.260Z,25.74
2022-08-23T18:14:12.147Z,25.53
2022-08-23T18:16:39.552Z,25.51
2022-08-23T18:19:11.155Z,25.45
2022-08-23T18:21:41.263Z,25.28
2022-08-23T18:24:09.329Z,25.14
2022-08-23T18:26:55.957Z,25.10
2022-08-23T18:29:22.770Z,24.97
2022-08-23T18:31:49.943Z,24.88
2022-08-23T18:34:19.024Z,24.83
2022-08-23T18:36:45.797Z,24.69
2022-08-23T18:39:14.905Z,24.62
2022-08-23T18:41:42.756Z,24.46
2022-08-23T18:44:10.932Z,24.46
2022-08-23T18:46:41.774Z,24.37
2022-08-23T18:49:11.356Z,24.26
2022-08-23T18:51:40.511Z,24.16
2022-08-23T18:54:09.160Z,24.09
2022-08-23T18:56:36.194Z,23.93
2022-08-23T18:59:04.093Z,23.91
2022-08-23T19:01:36.161Z,23.82
2022-08-23T19:04:05.318Z,23.73
2022-08-23T19:06:32.230Z,23.65
2022-08-23T19:09:00.980Z,23.50
2022-08-23T19:11:46.346Z,23.56
2022-08-23T19:14:33.376Z,23.47
2022-08-23T19:17:19.239Z,23.44
2022-08-23T19:19:45.855Z,23.36
2022-08-23T19:22:12.713Z,23.25
2022-08-23T19:24:39.777Z,23.21
2022-08-23T19:27:07.230Z,23.17
2022-08-23T19:29:34.594Z,23.03
2022-08-23T19:32:02.718Z,22.99
2022-08-23T19:34:30.269Z,23.04
2022-08-23T19:37:01.317Z,23.05
2022-08-23T19:39:29.808Z,23.01
2022-08-23T19:41:56.779Z,22.89
2022-08-23T19:44:23.696Z,22.86
2022-08-23T19:46:50.575Z,22.77
2022-08-23T19:49:17.451Z,22.74
2022-08-23T19:51:44.849Z,22.62
2022-08-23T19:54:12.834Z,22.62
2022-08-23T19:56:50.157Z,22.44
2022-08-23T19:59:36.432Z,22.39
2022-08-23T20:02:03.496Z,22.26
2022-08-23T20:04:32.703Z,22.25
2022-08-23T20:07:01.249Z,21.98
2022-08-23T20:09:30.755Z,21.95
2022-08-23T20:12:17.360Z,21.84
2022-08-23T20:15:04.846Z,21.92
2022-08-23T20:17:34.494Z,21.86
2022-08-23T20:20:01.228Z,21.88
2022-08-23T20:22:47.493Z,21.73
2022-08-23T20:25:14.888Z,21.63
2022-08-23T20:27:43.472Z,21.59
2022-08-23T20:30:12.689Z,21.58
2022-08-23T20:32:39.642Z,21.62
2022-08-23T20:35:09.006Z,21.60
2022-08-23T20:37:36.253Z,21.54
2022-08-23T20:40:05.892Z,21.37
2022-08-23T20:42:32.806Z,21.20
2022-08-23T20:44:59.527Z,21.15
2022-08-23T20:47:26.393Z,21.08
2022-08-23T20:49:53.063Z,21.15
2022-08-23T20:52:19.765Z,21.09
2022-08-23T20:54:46.555Z,21.06
2022-08-23T20:57:13.499Z,21.06
2022-08-23T20:59:44.501Z,20.82
2022-08-23T21:02:12.742Z,20.75
2022-08-23T21:04:40.202Z,20.69
2022-08-23T21:07:08.211Z,20.63
2022-08-23T21:09:36.074Z,20.53
2022-08-23T21:12:18.683Z,20.48
2022-08-23T21:14:45.355Z,20.48
2022-08-23T21:17:12.196Z,20.58
2022-08-23T21:19:39.022Z,20.77
2022-08-23T21:22:05.743Z,20.67
2022-08-23T21:24:32.580Z,20.63
2022-08-23T21:26:59.284Z,20.66
2022-08-23T21:29:26.181Z,20.67
2022-08-23T21:31:52.946Z,20.83
2022-08-23T21:34:19.644Z,20.81
2022-08-23T21:36:46.561Z,20.88
2022-08-23T21:39:13.738Z,20.83
2022-08-23T21:41:44.773Z,20.92
2022-08-23T21:44:18.969Z,20.89
2022-08-23T21:46:48.052Z,20.84
2022-08-23T21:49:16.249Z,20.82
2022-08-23T21:51:45.249Z,20.80
2022-08-23T21:54:14.058Z,20.61
2022-08-23T21:56:41.816Z,20.45
2022-08-23T21:59:13.812Z,20.47
2022-08-23T22:01:42.622Z,20.19
2022-08-23T22:04:12.949Z,20.16
2022-08-23T22:06:41.651Z,20.11
2022-08-23T22:09:13.506Z,20.16
2022-08-23T22:11:44.014Z,20.14
2022-08-23T22:14:17.919Z,20.21
2022-08-23T22:16:44.627Z,20.16
2022-08-23T22:19:15.133Z,20.21
2022-08-23T22:21:43.811Z,20.00
2022-08-23T22:24:10.740Z,19.95
2022-08-23T22:26:40.039Z,19.82
2022-08-23T22:29:08.673Z,19.77
2022-08-23T22:31:37.134Z,19.59
2022-08-23T22:34:06.517Z,19.61
2022-08-23T22:36:33.943Z,19.64
2022-08-23T22:39:00.762Z,19.48
2022-08-23T22:41:30.196Z,19.46
2022-08-23T22:44:00.665Z,19.29
2022-08-23T22:46:30.392Z,19.18
2022-08-23T22:48:57.417Z,19.26
2022-08-23T22:51:31.373Z,19.32
2022-08-23T22:54:03.137Z,19.33
2022-08-23T22:56:40.240Z,19.21
2022-08-23T22:59:07.858Z,19.19
2022-08-23T23:01:39.625Z,19.34
2022-08-23T23:04:10.066Z,19.24
2022-08-23T23:06:37.867Z,19.36
2022-08-23T23:09:07.918Z,19.29
2022-08-23T23:11:43.524Z,19.11
2022-08-23T23:14:11.643Z,19.08
2022-08-23T23:16:39.161Z,19.01
2022-08-23T23:19:24.854Z,18.99
2022-08-23T23:21:55.636Z,18.97
2022-08-23T23:24:29.285Z,19.11
2022-08-23T23:26:57.194Z,19.21
2022-08-23T23:29:24.862Z,19.24
2022-08-23T23:31:51.544Z,19.36
2022-08-23T23:34:18.533Z,19.39
2022-08-23T23:36:45.944Z,19.36
2022-08-23T23:39:14.532Z,19.25
2022-08-23T23:41:42.408Z,19.20
2022-08-23T23:44:09.154Z,19.12
2022-08-23T23:46:35.906Z,19.08
2022-08-23T23:49:02.729Z,19.16
2022-08-23T23:51:31.275Z,19.26
2022-08-23T23:54:01.044Z,19.29
2022-08-23T23:56:29.969Z,19.24
2022-08-23T23:58:58.668Z,19.16
